createdAt,value
2022-12-08T00:01:54.766Z,1.02
2022-12-08T00:04:22.774Z,1.00
2022-12-08T00:07:08.208Z,0.82
2022-12-08T00:12:09.618Z,0.98
2022-12-08T00:14:39.662Z,0.95
2022-12-08T00:17:11.094Z,0.80
2022-12-08T00:19:40.068Z,1.00
2022-12-08T00:22:09.143Z,0.90
2022-12-08T00:24:39.615Z,0.73
2022-12-08T00:27:08.076Z,1.08
2022-12-08T00:29:35.948Z,0.93
2022-12-08T00:32:03.892Z,1.00
2022-12-08T00:34:33.796Z,1.10
2022-12-08T00:37:01.893Z,1.00
2022-12-08T00:39:29.778Z,0.68
2022-12-08T00:42:15.809Z,0.93
2022-12-08T00:44:45.392Z,0.75
2022-12-08T00:47:14.382Z,0.85
2022-12-08T00:49:43.685Z,1.10
2022-12-08T00:52:12.626Z,0.60
2022-12-08T00:54:40.497Z,0.77
2022-12-08T00:57:08.357Z,1.10
2022-12-08T00:59:36.227Z,0.80
2022-12-08T01:02:04.129Z,1.05
2022-12-08T01:04:32.200Z,0.90
2022-12-08T22:37:11.626Z,3.30
2022-12-08T22:39:39.566Z,4.03
2022-12-08T22:42:07.514Z,6.45
2022-12-08T22:44:35.554Z,6.30
2022-12-08T22:47:03.534Z,6.13
2022-12-08T22:49:31.682Z,6.28
2022-12-08T22:51:59.623Z,8.07
2022-12-08T22:54:28.869Z,8.00
2022-12-08T22:56:56.765Z,8.13
2022-12-08T22:59:24.905Z,8.60
2022-12-08T23:01:53.980Z,8.13
2022-12-08T23:04:22.054Z,8.45
2022-12-08T23:06:50.319Z,8.02
2022-12-08T23:09:18.283Z,9.10
2022-12-08T23:11:47.606Z,10.32
2022-12-08T23:14:15.638Z,10.75
2022-12-08T23:16:43.639Z,10.73
2022-12-08T23:19:12.407Z,11.15
2022-12-08T23:21:40.628Z,10.07
2022-12-08T23:24:08.669Z,10.95
2022-12-08T23:26:36.653Z,11.05
2022-12-08T23:29:06.298Z,11.07
2022-12-08T23:31:34.280Z,9.48
2022-12-08T23:34:03.521Z,12.27
2022-12-08T23:36:31.660Z,12.13
2022-12-08T23:38:59.736Z,12.80
2022-12-08T23:41:27.727Z,13.00
2022-12-08T23:43:55.966Z,11.10
2022-12-08T23:46:25.494Z,13.02
2022-12-08T23:48:53.724Z,14.48
2022-12-08T23:51:21.994Z,14.93
2022-12-08T23:53:50.018Z,17.50
2022-12-08T23:56:18.847Z,15.40
2022-12-08T23:58:46.827Z,16.40
